sensor_id;sensor_type;location;lat;lon;timestamp;temperature;humidity
31129;DHT22;17777;48.770;8.944;2023-05-07T00:00:12;20.30;45.30
31129;DHT22;17777;48.770;8.944;2023-05-07T00:02:40;20.30;45.30
31129;DHT22;17777;48.770;8.944;2023-05-07T00:05:07;20.30;45.40
31129;DHT22;17777;48.770;8.944;2023-05-07T00:07:33;20.30;45.40
31129;DHT22;17777;48.770;8.944;2023-05-07T00:09:58;20.30;45.50
31129;DHT22;17777;48.770;8.944;2023-05-07T00:12:24;20.20;45.60
31129;DHT22;17777;48.770;8.944;2023-05-07T00:14:50;20.20;45.50
31129;DHT22;17777;48.770;8.944;2023-05-07T00:17:16;20.20;45.60
31129;DHT22;17777;48.770;8.944;2023-05-07T00:19:42;20.20;45.70
31129;DHT22;17777;48.770;8.944;2023-05-07T00:22:08;20.20;45.70
31129;DHT22;17777;48.770;8.944;2023-05-07T00:24:33;20.10;45.80
31129;DHT22;17777;48.770;8.944;2023-05-07T00:26:59;20.10;45.80
31129;DHT22;17777;48.770;8.944;2023-05-07T00:29:25;20.10;45.90
31129;DHT22;17777;48.770;8.944;2023-05-07T00:31:51;20.10;45.90
31129;DHT22;17777;48.770;8.944;2023-05-07T00:34:19;20.00;45.90
31129;DHT22;17777;48.770;8.944;2023-05-07T00:36:45;20.00;45.90
31129;DHT22;17777;48.770;8.944;2023-05-07T00:39:11;20.00;45.90
31129;DHT22;17777;48.770;8.944;2023-05-07T00:41:37;20.00;45.90
31129;DHT22;17777;48.770;8.944;2023-05-07T00:44:03;20.00;46.00
31129;DHT22;17777;48.770;8.944;2023-05-07T00:46:30;20.00;46.10
31129;DHT22;17777;48.770;8.944;2023-05-07T00:48:57;19.90;46.20
31129;DHT22;17777;48.770;8.944;2023-05-07T00:51:25;19.90;46.20
31129;DHT22;17777;48.770;8.944;2023-05-07T00:53:53;19.90;46.40
31129;DHT22;17777;48.770;8.944;2023-05-07T00:56:22;19.90;46.30
31129;DHT22;17777;48.770;8.944;2023-05-07T00:58:49;19.80;46.30
31129;DHT22;17777;48.770;8.944;2023-05-07T01:01:15;19.80;46.30
31129;DHT22;17777;48.770;8.944;2023-05-07T01:03:42;19.80;46.30
31129;DHT22;17777;48.770;8.944;2023-05-07T01:06:09;19.70;46.30
31129;DHT22;17777;48.770;8.944;2023-05-07T01:08:37;19.70;46.40
31129;DHT22;17777;48.770;8.944;2023-05-07T01:11:06;19.70;46.50
31129;DHT22;17777;48.770;8.944;2023-05-07T01:13:33;19.70;46.60
31129;DHT22;17777;48.770;8.944;2023-05-07T01:16:01;19.60;46.60
31129;DHT22;17777;48.770;8.944;2023-05-07T01:18:27;19.60;46.70
31129;DHT22;17777;48.770;8.944;2023-05-07T01:20:58;19.60;46.80
31129;DHT22;17777;48.770;8.944;2023-05-07T01:23:27;19.60;46.80
31129;DHT22;17777;48.770;8.944;2023-05-07T01:25:54;19.50;46.80
31129;DHT22;17777;48.770;8.944;2023-05-07T01:28:22;19.50;46.80
31129;DHT22;17777;48.770;8.944;2023-05-07T01:30:54;19.50;46.80
31129;DHT22;17777;48.770;8.944;2023-05-07T01:33:24;19.50;47.10
31129;DHT22;17777;48.770;8.944;2023-05-07T01:35:53;19.50;46.90
31129;DHT22;17777;48.770;8.944;2023-05-07T01:38:21;19.50;47.00
31129;DHT22;17777;48.770;8.944;2023-05-07T01:40:47;19.40;47.10
31129;DHT22;17777;48.770;8.944;2023-05-07T01:43:13;19.40;47.10
31129;DHT22;17777;48.770;8.944;2023-05-07T01:45:40;19.40;47.10
31129;DHT22;17777;48.770;8.944;2023-05-07T01:48:07;19.40;47.20
31129;DHT22;17777;48.770;8.944;2023-05-07T01:50:35;19.40;47.20
31129;DHT22;17777;48.770;8.944;2023-05-07T01:53:01;19.40;47.10
31129;DHT22;17777;48.770;8.944;2023-05-07T01:55:28;19.40;47.20
31129;DHT22;17777;48.770;8.944;2023-05-07T01:57:53;19.30;47.10
31129;DHT22;17777;48.770;8.944;2023-05-07T02:00:19;19.30;47.20
31129;DHT22;17777;48.770;8.944;2023-05-07T02:02:45;19.30;47.20
31129;DHT22;17777;48.770;8.944;2023-05-07T02:05:24;19.30;47.30
31129;DHT22;17777;48.770;8.944;2023-05-07T02:08:08;19.20;47.20
31129;DHT22;17777;48.770;8.944;2023-05-07T02:10:34;19.20;47.20
31129;DHT22;17777;48.770;8.944;2023-05-07T02:13:01;19.20;47.30
31129;DHT22;17777;48.770;8.944;2023-05-07T02:15:27;19.20;47.40
31129;DHT22;17777;48.770;8.944;2023-05-07T02:18:03;19.20;47.40
31129;DHT22;17777;48.770;8.944;2023-05-07T02:20:30;19.20;47.80
31129;DHT22;17777;48.770;8.944;2023-05-07T02:22:56;19.20;47.60
31129;DHT22;17777;48.770;8.944;2023-05-07T02:25:22;19.20;47.60
31129;DHT22;17777;48.770;8.944;2023-05-07T02:27:48;19.10;47.70
31129;DHT22;17777;48.770;8.944;2023-05-07T02:30:15;19.10;47.70
31129;DHT22;17777;48.770;8.944;2023-05-07T02:32:41;19.10;47.70
31129;DHT22;17777;48.770;8.944;2023-05-07T02:35:07;19.10;47.70
31129;DHT22;17777;48.770;8.944;2023-05-07T02:37:33;19.10;47.70
31129;DHT22;17777;48.770;8.944;2023-05-07T02:39:59;19.00;47.70
31129;DHT22;17777;48.770;8.944;2023-05-07T02:42:26;19.00;47.70
31129;DHT22;17777;48.770;8.944;2023-05-07T02:44:52;19.00;47.80
31129;DHT22;17777;48.770;8.944;2023-05-07T02:47:18;19.00;47.80
31129;DHT22;17777;48.770;8.944;2023-05-07T02:49:45;19.00;47.80
31129;DHT22;17777;48.770;8.944;2023-05-07T02:52:10;19.00;47.70
31129;DHT22;17777;48.770;8.944;2023-05-07T02:54:36;19.00;47.80
31129;DHT22;17777;48.770;8.944;2023-05-07T02:57:02;19.00;47.80
31129;DHT22;17777;48.770;8.944;2023-05-07T02:59:28;19.00;47.90
31129;DHT22;17777;48.770;8.944;2023-05-07T03:01:55;18.90;47.80
31129;DHT22;17777;48.770;8.944;2023-05-07T03:04:21;18.90;47.90
31129;DHT22;17777;48.770;8.944;2023-05-07T03:06:47;18.90;47.90
31129;DHT22;17777;48.770;8.944;2023-05-07T03:09:13;18.90;47.90
31129;DHT22;17777;48.770;8.944;2023-05-07T03:11:39;18.90;47.90
31129;DHT22;17777;48.770;8.944;2023-05-07T03:14:05;18.90;47.90
31129;DHT22;17777;48.770;8.944;2023-05-07T03:16:31;18.90;47.90
31129;DHT22;17777;48.770;8.944;2023-05-07T03:18:57;18.80;47.90
31129;DHT22;17777;48.770;8.944;2023-05-07T03:21:22;18.80;47.90
31129;DHT22;17777;48.770;8.944;2023-05-07T03:23:48;18.80;47.90
31129;DHT22;17777;48.770;8.944;2023-05-07T03:26:14;18.80;48.00
31129;DHT22;17777;48.770;8.944;2023-05-07T03:28:41;18.70;48.00
31129;DHT22;17777;48.770;8.944;2023-05-07T03:31:11;18.70;48.10
31129;DHT22;17777;48.770;8.944;2023-05-07T03:33:48;18.70;48.10
31129;DHT22;17777;48.770;8.944;2023-05-07T03:36:21;18.70;48.20
31129;DHT22;17777;48.770;8.944;2023-05-07T03:38:48;18.70;48.20
31129;DHT22;17777;48.770;8.944;2023-05-07T03:41:18;18.60;48.20
31129;DHT22;17777;48.770;8.944;2023-05-07T03:43:46;18.60;48.30
31129;DHT22;17777;48.770;8.944;2023-05-07T03:46:12;18.60;48.30
31129;DHT22;17777;48.770;8.944;2023-05-07T03:48:38;18.60;48.30
31129;DHT22;17777;48.770;8.944;2023-05-07T03:51:05;18.60;48.20
31129;DHT22;17777;48.770;8.944;2023-05-07T03:53:32;18.50;48.10
31129;DHT22;17777;48.770;8.944;2023-05-07T03:55:58;18.50;48.40
31129;DHT22;17777;48.770;8.944;2023-05-07T03:58:24;18.50;48.00
31129;DHT22;17777;48.770;8.944;2023-05-07T04:00:51;18.40;47.90
31129;DHT22;17777;48.770;8.944;2023-05-07T04:03:23;18.40;47.90
31129;DHT22;17777;48.770;8.944;2023-05-07T04:05:49;18.40;48.00
31129;DHT22;17777;48.770;8.944;2023-05-07T04:08:15;18.40;48.00
31129;DHT22;17777;48.770;8.944;2023-05-07T04:10:45;18.40;48.00
31129;DHT22;17777;48.770;8.944;2023-05-07T04:13:12;18.30;48.10
31129;DHT22;17777;48.770;8.944;2023-05-07T04:15:38;18.30;48.10
31129;DHT22;17777;48.770;8.944;2023-05-07T04:18:07;18.30;48.20
31129;DHT22;17777;48.770;8.944;2023-05-07T04:20:34;18.30;48.30
31129;DHT22;17777;48.770;8.944;2023-05-07T04:23:03;18.30;48.30
31129;DHT22;17777;48.770;8.944;2023-05-07T04:25:29;18.20;48.30
31129;DHT22;17777;48.770;8.944;2023-05-07T04:28:02;18.20;48.30
31129;DHT22;17777;48.770;8.944;2023-05-07T04:30:29;18.20;48.30
31129;DHT22;17777;48.770;8.944;2023-05-07T04:32:56;18.20;48.30
31129;DHT22;17777;48.770;8.944;2023-05-07T04:35:23;18.20;49.00
31129;DHT22;17777;48.770;8.944;2023-05-07T04:37:49;18.10;48.40
31129;DHT22;17777;48.770;8.944;2023-05-07T04:40:16;18.10;48.50
31129;DHT22;17777;48.770;8.944;2023-05-07T04:42:43;18.10;48.60
31129;DHT22;17777;48.770;8.944;2023-05-07T04:45:09;18.10;48.70
31129;DHT22;17777;48.770;8.944;2023-05-07T04:47:37;18.10;48.70
31129;DHT22;17777;48.770;8.944;2023-05-07T04:50:03;18.10;48.70
31129;DHT22;17777;48.770;8.944;2023-05-07T04:52:29;18.10;48.70
31129;DHT22;17777;48.770;8.944;2023-05-07T04:54:55;18.00;48.60
31129;DHT22;17777;48.770;8.944;2023-05-07T04:57:21;18.00;48.60
31129;DHT22;17777;48.770;8.944;2023-05-07T04:59:47;18.00;48.80
31129;DHT22;17777;48.770;8.944;2023-05-07T05:02:13;18.00;48.80
31129;DHT22;17777;48.770;8.944;2023-05-07T05:04:39;18.00;48.90
31129;DHT22;17777;48.770;8.944;2023-05-07T05:07:06;18.00;49.00
31129;DHT22;17777;48.770;8.944;2023-05-07T05:09:32;18.00;49.20
31129;DHT22;17777;48.770;8.944;2023-05-07T05:11:58;18.00;49.30
31129;DHT22;17777;48.770;8.944;2023-05-07T05:14:24;18.00;49.20
31129;DHT22;17777;48.770;8.944;2023-05-07T05:16:50;18.00;49.30
31129;DHT22;17777;48.770;8.944;2023-05-07T05:19:17;18.00;49.40
31129;DHT22;17777;48.770;8.944;2023-05-07T05:21:44;17.90;49.40
31129;DHT22;17777;48.770;8.944;2023-05-07T05:24:10;18.00;49.60
31129;DHT22;17777;48.770;8.944;2023-05-07T05:26:36;18.00;49.80
31129;DHT22;17777;48.770;8.944;2023-05-07T05:29:02;18.00;49.90
31129;DHT22;17777;48.770;8.944;2023-05-07T05:31:30;18.00;49.90
31129;DHT22;17777;48.770;8.944;2023-05-07T05:33:56;18.00;50.00
31129;DHT22;17777;48.770;8.944;2023-05-07T05:36:22;18.10;50.10
31129;DHT22;17777;48.770;8.944;2023-05-07T05:38:50;18.10;50.20
31129;DHT22;17777;48.770;8.944;2023-05-07T05:41:16;18.10;50.30
31129;DHT22;17777;48.770;8.944;2023-05-07T05:43:42;18.10;50.30
31129;DHT22;17777;48.770;8.944;2023-05-07T05:46:09;18.20;50.50
31129;DHT22;17777;48.770;8.944;2023-05-07T05:48:37;18.20;50.60
31129;DHT22;17777;48.770;8.944;2023-05-07T05:51:04;18.20;50.70
31129;DHT22;17777;48.770;8.944;2023-05-07T05:53:29;18.30;50.80
31129;DHT22;17777;48.770;8.944;2023-05-07T05:55:55;18.30;50.80
31129;DHT22;17777;48.770;8.944;2023-05-07T05:58:21;18.30;50.90
31129;DHT22;17777;48.770;8.944;2023-05-07T06:00:53;18.40;51.00
31129;DHT22;17777;48.770;8.944;2023-05-07T06:03:22;18.40;51.70
31129;DHT22;17777;48.770;8.944;2023-05-07T06:05:48;18.50;51.20
31129;DHT22;17777;48.770;8.944;2023-05-07T06:08:14;18.50;51.30
31129;DHT22;17777;48.770;8.944;2023-05-07T06:10:40;18.60;51.40
31129;DHT22;17777;48.770;8.944;2023-05-07T06:13:07;18.60;51.60
31129;DHT22;17777;48.770;8.944;2023-05-07T06:15:35;18.70;51.60
31129;DHT22;17777;48.770;8.944;2023-05-07T06:18:06;18.70;51.60
31129;DHT22;17777;48.770;8.944;2023-05-07T06:20:32;18.70;51.70
31129;DHT22;17777;48.770;8.944;2023-05-07T06:23:00;18.90;51.80
31129;DHT22;17777;48.770;8.944;2023-05-07T06:25:27;18.90;51.90
31129;DHT22;17777;48.770;8.944;2023-05-07T06:27:53;18.90;51.90
31129;DHT22;17777;48.770;8.944;2023-05-07T06:30:19;19.00;51.80
31129;DHT22;17777;48.770;8.944;2023-05-07T06:32:45;19.10;51.80
31129;DHT22;17777;48.770;8.944;2023-05-07T06:35:12;19.10;51.80
31129;DHT22;17777;48.770;8.944;2023-05-07T06:37:41;19.10;51.80
31129;DHT22;17777;48.770;8.944;2023-05-07T06:40:12;19.20;51.90
31129;DHT22;17777;48.770;8.944;2023-05-07T06:42:39;19.20;51.90
31129;DHT22;17777;48.770;8.944;2023-05-07T06:45:22;19.30;52.00
31129;DHT22;17777;48.770;8.944;2023-05-07T06:47:48;19.40;52.00
31129;DHT22;17777;48.770;8.944;2023-05-07T06:50:13;19.40;52.70
31129;DHT22;17777;48.770;8.944;2023-05-07T06:52:43;19.50;52.00
31129;DHT22;17777;48.770;8.944;2023-05-07T06:55:10;19.50;52.00
31129;DHT22;17777;48.770;8.944;2023-05-07T06:57:37;19.60;52.10
31129;DHT22;17777;48.770;8.944;2023-05-07T07:00:04;19.70;52.10
31129;DHT22;17777;48.770;8.944;2023-05-07T07:02:38;19.70;52.20
31129;DHT22;17777;48.770;8.944;2023-05-07T07:05:04;19.80;52.20
31129;DHT22;17777;48.770;8.944;2023-05-07T07:07:31;19.90;52.20
31129;DHT22;17777;48.770;8.944;2023-05-07T07:09:56;20.00;52.20
31129;DHT22;17777;48.770;8.944;2023-05-07T07:12:22;20.10;52.40
31129;DHT22;17777;48.770;8.944;2023-05-07T07:14:50;20.20;52.40
31129;DHT22;17777;48.770;8.944;2023-05-07T07:17:16;20.30;52.40
31129;DHT22;17777;48.770;8.944;2023-05-07T07:19:41;20.40;52.30
31129;DHT22;17777;48.770;8.944;2023-05-07T07:22:08;20.50;52.20
31129;DHT22;17777;48.770;8.944;2023-05-07T07:24:34;20.60;52.10
31129;DHT22;17777;48.770;8.944;2023-05-07T07:27:04;20.70;52.00
31129;DHT22;17777;48.770;8.944;2023-05-07T07:29:32;20.80;52.00
31129;DHT22;17777;48.770;8.944;2023-05-07T07:31:58;20.90;52.00
31129;DHT22;17777;48.770;8.944;2023-05-07T07:34:24;21.00;52.00
31129;DHT22;17777;48.770;8.944;2023-05-07T07:36:50;21.10;52.00
31129;DHT22;17777;48.770;8.944;2023-05-07T07:39:18;21.20;51.90
31129;DHT22;17777;48.770;8.944;2023-05-07T07:41:45;21.30;52.00
31129;DHT22;17777;48.770;8.944;2023-05-07T07:44:12;21.40;51.90
31129;DHT22;17777;48.770;8.944;2023-05-07T07:46:39;21.50;51.80
31129;DHT22;17777;48.770;8.944;2023-05-07T07:49:05;21.50;51.60
31129;DHT22;17777;48.770;8.944;2023-05-07T07:51:31;21.60;51.60
31129;DHT22;17777;48.770;8.944;2023-05-07T07:53:59;21.70;51.70
31129;DHT22;17777;48.770;8.944;2023-05-07T07:56:25;21.80;51.60
31129;DHT22;17777;48.770;8.944;2023-05-07T07:58:51;21.80;51.40
31129;DHT22;17777;48.770;8.944;2023-05-07T08:01:18;21.90;51.40
31129;DHT22;17777;48.770;8.944;2023-05-07T08:03:45;22.00;51.30
31129;DHT22;17777;48.770;8.944;2023-05-07T08:06:12;22.00;51.10
31129;DHT22;17777;48.770;8.944;2023-05-07T08:08:38;22.10;51.00
31129;DHT22;17777;48.770;8.944;2023-05-07T08:11:04;22.20;51.10
31129;DHT22;17777;48.770;8.944;2023-05-07T08:13:32;22.30;50.90
31129;DHT22;17777;48.770;8.944;2023-05-07T08:15:59;22.30;50.90
31129;DHT22;17777;48.770;8.944;2023-05-07T08:18:25;22.50;50.80
31129;DHT22;17777;48.770;8.944;2023-05-07T08:20:53;22.50;50.50
31129;DHT22;17777;48.770;8.944;2023-05-07T08:23:22;22.60;50.30
31129;DHT22;17777;48.770;8.944;2023-05-07T08:25:49;22.70;50.00
31129;DHT22;17777;48.770;8.944;2023-05-07T08:28:15;22.80;49.90
31129;DHT22;17777;48.770;8.944;2023-05-07T08:30:41;22.90;49.70
31129;DHT22;17777;48.770;8.944;2023-05-07T08:33:09;23.00;49.60
31129;DHT22;17777;48.770;8.944;2023-05-07T08:35:35;23.10;49.40
31129;DHT22;17777;48.770;8.944;2023-05-07T08:38:02;23.20;49.30
31129;DHT22;17777;48.770;8.944;2023-05-07T08:40:28;23.30;49.20
31129;DHT22;17777;48.770;8.944;2023-05-07T08:42:57;23.40;49.00
31129;DHT22;17777;48.770;8.944;2023-05-07T08:45:24;23.50;48.90
31129;DHT22;17777;48.770;8.944;2023-05-07T08:47:57;23.60;48.80
31129;DHT22;17777;48.770;8.944;2023-05-07T08:50:26;23.70;48.70
31129;DHT22;17777;48.770;8.944;2023-05-07T08:52:53;23.80;48.70
31129;DHT22;17777;48.770;8.944;2023-05-07T08:55:21;23.90;48.70
31129;DHT22;17777;48.770;8.944;2023-05-07T08:57:47;24.00;48.50
31129;DHT22;17777;48.770;8.944;2023-05-07T09:00:15;24.10;48.50
31129;DHT22;17777;48.770;8.944;2023-05-07T09:02:46;24.20;48.40
31129;DHT22;17777;48.770;8.944;2023-05-07T09:05:12;24.30;48.30
31129;DHT22;17777;48.770;8.944;2023-05-07T09:07:39;24.40;48.60
31129;DHT22;17777;48.770;8.944;2023-05-07T09:10:07;24.50;48.20
31129;DHT22;17777;48.770;8.944;2023-05-07T09:12:35;24.60;48.10
31129;DHT22;17777;48.770;8.944;2023-05-07T09:15:03;24.70;48.00
31129;DHT22;17777;48.770;8.944;2023-05-07T09:17:30;24.80;47.50
31129;DHT22;17777;48.770;8.944;2023-05-07T09:19:56;24.90;47.70
31129;DHT22;17777;48.770;8.944;2023-05-07T09:22:22;25.00;47.80
31129;DHT22;17777;48.770;8.944;2023-05-07T09:24:57;25.10;47.60
31129;DHT22;17777;48.770;8.944;2023-05-07T09:27:26;25.20;47.10
31129;DHT22;17777;48.770;8.944;2023-05-07T09:29:53;25.30;47.10
31129;DHT22;17777;48.770;8.944;2023-05-07T09:32:19;25.40;47.00
31129;DHT22;17777;48.770;8.944;2023-05-07T09:34:45;25.40;46.70
31129;DHT22;17777;48.770;8.944;2023-05-07T09:37:13;25.50;46.60
31129;DHT22;17777;48.770;8.944;2023-05-07T09:42:06;25.70;46.20
31129;DHT22;17777;48.770;8.944;2023-05-07T09:44:35;25.80;46.10
31129;DHT22;17777;48.770;8.944;2023-05-07T09:47:05;25.90;45.90
31129;DHT22;17777;48.770;8.944;2023-05-07T09:49:39;26.00;45.50
31129;DHT22;17777;48.770;8.944;2023-05-07T09:52:09;26.00;45.30
31129;DHT22;17777;48.770;8.944;2023-05-07T09:54:40;26.10;45.30
31129;DHT22;17777;48.770;8.944;2023-05-07T09:57:12;26.20;45.40
31129;DHT22;17777;48.770;8.944;2023-05-07T09:59:43;26.30;44.70
31129;DHT22;17777;48.770;8.944;2023-05-07T10:02:13;26.30;44.90
31129;DHT22;17777;48.770;8.944;2023-05-07T10:04:48;26.30;45.00
31129;DHT22;17777;48.770;8.944;2023-05-07T10:07:17;26.50;45.00
31129;DHT22;17777;48.770;8.944;2023-05-07T10:09:44;26.50;44.70
31129;DHT22;17777;48.770;8.944;2023-05-07T10:12:19;26.60;44.60
31129;DHT22;17777;48.770;8.944;2023-05-07T10:14:47;26.70;44.40
31129;DHT22;17777;48.770;8.944;2023-05-07T10:17:16;26.70;44.20
31129;DHT22;17777;48.770;8.944;2023-05-07T10:19:45;26.80;43.80
31129;DHT22;17777;48.770;8.944;2023-05-07T10:22:11;26.80;43.60
31129;DHT22;17777;48.770;8.944;2023-05-07T10:24:44;26.80;43.50
31129;DHT22;17777;48.770;8.944;2023-05-07T10:27:16;26.90;43.50
31129;DHT22;17777;48.770;8.944;2023-05-07T10:30:05;26.90;43.60
31129;DHT22;17777;48.770;8.944;2023-05-07T10:32:55;26.90;42.60
31129;DHT22;17777;48.770;8.944;2023-05-07T10:35:31;27.00;43.10
31129;DHT22;17777;48.770;8.944;2023-05-07T10:38:03;27.10;43.20
31129;DHT22;17777;48.770;8.944;2023-05-07T10:40:33;27.10;43.10
31129;DHT22;17777;48.770;8.944;2023-05-07T10:43:02;27.10;43.10
31129;DHT22;17777;48.770;8.944;2023-05-07T10:45:36;27.10;42.90
31129;DHT22;17777;48.770;8.944;2023-05-07T10:48:12;27.20;43.00
31129;DHT22;17777;48.770;8.944;2023-05-07T10:50:42;27.20;42.40
31129;DHT22;17777;48.770;8.944;2023-05-07T10:58:54;27.30;42.20
31129;DHT22;17777;48.770;8.944;2023-05-07T11:04:26;27.30;42.40
31129;DHT22;17777;48.770;8.944;2023-05-07T11:07:25;27.30;42.70
31129;DHT22;17777;48.770;8.944;2023-05-07T11:10:01;27.30;42.00
31129;DHT22;17777;48.770;8.944;2023-05-07T11:15:35;27.30;42.50
31129;DHT22;17777;48.770;8.944;2023-05-07T11:18:05;27.30;42.00
31129;DHT22;17777;48.770;8.944;2023-05-07T11:20:49;27.30;42.40
31129;DHT22;17777;48.770;8.944;2023-05-07T11:26:11;27.30;42.80
31129;DHT22;17777;48.770;8.944;2023-05-07T11:28:40;27.20;42.70
31129;DHT22;17777;48.770;8.944;2023-05-07T11:31:07;27.20;42.80
31129;DHT22;17777;48.770;8.944;2023-05-07T11:33:35;27.20;42.90
31129;DHT22;17777;48.770;8.944;2023-05-07T11:36:04;27.20;43.10
31129;DHT22;17777;48.770;8.944;2023-05-07T11:38:36;27.20;43.20
31129;DHT22;17777;48.770;8.944;2023-05-07T11:41:02;27.30;43.60
31129;DHT22;17777;48.770;8.944;2023-05-07T11:43:31;27.30;43.60
31129;DHT22;17777;48.770;8.944;2023-05-07T11:46:11;27.50;43.70
31129;DHT22;17777;48.770;8.944;2023-05-07T11:48:38;27.70;43.20
31129;DHT22;17777;48.770;8.944;2023-05-07T11:51:05;27.90;43.60
31129;DHT22;17777;48.770;8.944;2023-05-07T11:53:42;28.10;43.50
31129;DHT22;17777;48.770;8.944;2023-05-07T11:56:11;28.40;42.90
31129;DHT22;17777;48.770;8.944;2023-05-07T11:58:39;28.60;43.00
31129;DHT22;17777;48.770;8.944;2023-05-07T12:01:07;28.70;42.90
31129;DHT22;17777;48.770;8.944;2023-05-07T12:03:35;28.90;42.30
31129;DHT22;17777;48.770;8.944;2023-05-07T12:06:05;29.00;41.80
31129;DHT22;17777;48.770;8.944;2023-05-07T12:08:32;29.10;41.20
31129;DHT22;17777;48.770;8.944;2023-05-07T12:10:58;29.10;40.90
31129;DHT22;17777;48.770;8.944;2023-05-07T12:13:25;29.10;40.40
31129;DHT22;17777;48.770;8.944;2023-05-07T12:15:53;29.00;39.60
31129;DHT22;17777;48.770;8.944;2023-05-07T12:18:20;28.90;39.40
31129;DHT22;17777;48.770;8.944;2023-05-07T12:20:46;28.70;39.50
31129;DHT22;17777;48.770;8.944;2023-05-07T12:23:13;28.60;39.60
31129;DHT22;17777;48.770;8.944;2023-05-07T12:25:40;28.40;39.70
31129;DHT22;17777;48.770;8.944;2023-05-07T12:28:13;28.30;39.80
31129;DHT22;17777;48.770;8.944;2023-05-07T12:30:42;28.10;40.10
31129;DHT22;17777;48.770;8.944;2023-05-07T12:33:09;28.10;40.90
31129;DHT22;17777;48.770;8.944;2023-05-07T12:35:40;28.00;41.60
31129;DHT22;17777;48.770;8.944;2023-05-07T12:38:13;28.00;40.70
31129;DHT22;17777;48.770;8.944;2023-05-07T12:40:43;28.10;41.10
31129;DHT22;17777;48.770;8.944;2023-05-07T12:43:21;28.40;42.40
31129;DHT22;17777;48.770;8.944;2023-05-07T12:45:51;28.80;42.30
31129;DHT22;17777;48.770;8.944;2023-05-07T12:48:19;29.30;43.00
31129;DHT22;17777;48.770;8.944;2023-05-07T12:50:48;29.80;42.70
31129;DHT22;17777;48.770;8.944;2023-05-07T12:53:21;30.50;43.00
31129;DHT22;17777;48.770;8.944;2023-05-07T12:55:49;31.10;42.40
31129;DHT22;17777;48.770;8.944;2023-05-07T12:58:17;31.70;41.60
31129;DHT22;17777;48.770;8.944;2023-05-07T13:00:49;32.30;40.90
31129;DHT22;17777;48.770;8.944;2023-05-07T13:03:30;32.80;39.50
31129;DHT22;17777;48.770;8.944;2023-05-07T13:06:07;33.10;37.70
31129;DHT22;17777;48.770;8.944;2023-05-07T13:08:40;33.20;36.30
31129;DHT22;17777;48.770;8.944;2023-05-07T13:11:09;33.10;36.20
31129;DHT22;17777;48.770;8.944;2023-05-07T13:13:37;33.00;36.00
31129;DHT22;17777;48.770;8.944;2023-05-07T13:16:08;32.70;35.70
31129;DHT22;17777;48.770;8.944;2023-05-07T13:18:36;32.40;35.30
31129;DHT22;17777;48.770;8.944;2023-05-07T13:21:03;32.10;35.30
31129;DHT22;17777;48.770;8.944;2023-05-07T13:23:29;31.60;35.30
31129;DHT22;17777;48.770;8.944;2023-05-07T13:25:54;31.30;35.40
31129;DHT22;17777;48.770;8.944;2023-05-07T13:28:22;30.90;35.60
31129;DHT22;17777;48.770;8.944;2023-05-07T13:30:51;30.50;35.80
31129;DHT22;17777;48.770;8.944;2023-05-07T13:33:17;30.10;36.10
31129;DHT22;17777;48.770;8.944;2023-05-07T13:35:44;29.80;36.50
31129;DHT22;17777;48.770;8.944;2023-05-07T13:38:09;29.40;36.80
31129;DHT22;17777;48.770;8.944;2023-05-07T13:40:35;29.10;37.10
31129;DHT22;17777;48.770;8.944;2023-05-07T13:43:01;28.70;37.50
31129;DHT22;17777;48.770;8.944;2023-05-07T13:45:28;28.40;37.90
31129;DHT22;17777;48.770;8.944;2023-05-07T13:47:57;28.10;38.30
31129;DHT22;17777;48.770;8.944;2023-05-07T13:50:23;27.80;38.60
31129;DHT22;17777;48.770;8.944;2023-05-07T13:52:50;27.60;38.90
31129;DHT22;17777;48.770;8.944;2023-05-07T13:55:17;27.30;39.20
31129;DHT22;17777;48.770;8.944;2023-05-07T13:57:44;27.10;39.60
31129;DHT22;17777;48.770;8.944;2023-05-07T14:00:11;26.90;39.80
31129;DHT22;17777;48.770;8.944;2023-05-07T14:02:46;26.70;40.10
31129;DHT22;17777;48.770;8.944;2023-05-07T14:05:11;26.50;40.30
31129;DHT22;17777;48.770;8.944;2023-05-07T14:07:39;26.30;40.70
31129;DHT22;17777;48.770;8.944;2023-05-07T14:10:05;26.10;41.10
31129;DHT22;17777;48.770;8.944;2023-05-07T14:12:32;26.00;41.40
31129;DHT22;17777;48.770;8.944;2023-05-07T14:14:58;25.80;41.70
31129;DHT22;17777;48.770;8.944;2023-05-07T14:17:25;25.70;42.00
31129;DHT22;17777;48.770;8.944;2023-05-07T14:19:53;25.60;42.30
31129;DHT22;17777;48.770;8.944;2023-05-07T14:22:23;25.50;42.50
31129;DHT22;17777;48.770;8.944;2023-05-07T14:24:50;25.40;42.70
31129;DHT22;17777;48.770;8.944;2023-05-07T14:27:16;25.20;43.10
31129;DHT22;17777;48.770;8.944;2023-05-07T14:29:42;25.20;43.20
31129;DHT22;17777;48.770;8.944;2023-05-07T14:32:08;25.10;43.50
31129;DHT22;17777;48.770;8.944;2023-05-07T14:34:34;25.00;43.60
31129;DHT22;17777;48.770;8.944;2023-05-07T14:37:00;24.90;43.70
31129;DHT22;17777;48.770;8.944;2023-05-07T14:39:26;24.80;43.90
31129;DHT22;17777;48.770;8.944;2023-05-07T14:41:52;24.70;44.20
31129;DHT22;17777;48.770;8.944;2023-05-07T14:44:20;24.60;44.30
31129;DHT22;17777;48.770;8.944;2023-05-07T14:46:46;24.50;44.30
31129;DHT22;17777;48.770;8.944;2023-05-07T14:49:13;24.40;44.30
31129;DHT22;17777;48.770;8.944;2023-05-07T14:51:46;24.40;44.60
31129;DHT22;17777;48.770;8.944;2023-05-07T14:54:15;24.30;45.20
31129;DHT22;17777;48.770;8.944;2023-05-07T14:56:41;24.20;45.30
31129;DHT22;17777;48.770;8.944;2023-05-07T14:59:07;24.20;45.40
31129;DHT22;17777;48.770;8.944;2023-05-07T15:01:35;24.10;45.60
31129;DHT22;17777;48.770;8.944;2023-05-07T15:04:03;24.10;46.00
31129;DHT22;17777;48.770;8.944;2023-05-07T15:06:29;24.00;46.20
31129;DHT22;17777;48.770;8.944;2023-05-07T15:08:55;24.00;46.10
31129;DHT22;17777;48.770;8.944;2023-05-07T15:11:21;24.00;46.20
31129;DHT22;17777;48.770;8.944;2023-05-07T15:13:47;24.00;46.30
31129;DHT22;17777;48.770;8.944;2023-05-07T15:16:13;23.90;46.40
31129;DHT22;17777;48.770;8.944;2023-05-07T15:18:38;23.90;46.50
31129;DHT22;17777;48.770;8.944;2023-05-07T15:21:04;23.90;46.70
31129;DHT22;17777;48.770;8.944;2023-05-07T15:23:32;23.90;47.00
31129;DHT22;17777;48.770;8.944;2023-05-07T15:25:58;23.90;47.00
31129;DHT22;17777;48.770;8.944;2023-05-07T15:28:23;23.90;47.00
31129;DHT22;17777;48.770;8.944;2023-05-07T15:30:52;23.90;47.10
31129;DHT22;17777;48.770;8.944;2023-05-07T15:33:18;23.80;47.20
31129;DHT22;17777;48.770;8.944;2023-05-07T15:35:44;23.80;47.50
31129;DHT22;17777;48.770;8.944;2023-05-07T15:38:09;23.80;47.60
31129;DHT22;17777;48.770;8.944;2023-05-07T15:40:36;23.80;47.70
31129;DHT22;17777;48.770;8.944;2023-05-07T15:43:07;23.80;47.80
31129;DHT22;17777;48.770;8.944;2023-05-07T15:45:41;23.70;47.90
31129;DHT22;17777;48.770;8.944;2023-05-07T15:48:09;23.70;48.40
31129;DHT22;17777;48.770;8.944;2023-05-07T15:50:35;23.70;48.00